Accueil
METAR-TAF:

METAR-TAF

Aéroports :

Vientiane, Laos

Aéroport international de Wattay

latitude: 17-57N, longitude: 102-34E, altitude: 171 m

Observation

Le bulletin a été fait il y a 33 minutes, à 07:30 UTC
Vent 6 kt de sud/sud-est
Température 33°C
Humidité 46%
Pression 1006 hPa
Visibilité: 7000 m
Quelques nuages à une hauteur de 2000 ft

METAR: VLVT 270730Z 16006KT 7000 FEW020 33/20 Q1006 NOSIG

Heure: 15:03 (08:03 UTC)

Prévision

Le bulletin a été fait il y a 3 heures et 3 minutes, à 05:00 UTC
Prévision valable du 27 à 06 UTC au 28 à 06 UTC
Vent 4 kt de est/nord-est
Visibilité: 7000 m
Nuages épars à une hauteur de 2000 ft
Quelques nuages à une hauteur de 5000 ft
Temporairement
du 27 à 14 UTC au 27 à 20 UTC
Visibilité: 4000 m
Quelques nuages à une hauteur de 2000 ft
Quelques nuages à une hauteur de 5000 ft
brume

TAF: VLVT 270500Z 2706/2806 06004KT 7000 SCT020 FEW050 TEMPO 2714/2720 4000 BR FEW020 FEW050

Observations et prévisions météorologiques de plus de 4000 aéroports (messages METAR et TAF).

Les stations disponibles sont représentées par des disques jaunes et rouges sur la carte.

Passer la souris dessus pour voir le nom de la station.

Cliquer dessus pour voir les observations et prévisions météorologiques.

Pour changer de carte: cliquez sur les boutons verts avec une croix noire pour zoomer, sur le bouton vert avec un tiret pour effectuer un zoom arrière, ou sur les flèches vertes pour les cartes adjacentes.


METAR-TAF: